sensor_id;sensor_type;location;lat;lon;timestamp;P1;durP1;ratioP1;P2;durP2;ratioP2
61909;SDS011;47865;52.086;5.410;2022-10-22T00:02:19;9.10;;;4.88;;
61909;SDS011;47865;52.086;5.410;2022-10-22T00:04:46;12.10;;;5.25;;
61909;SDS011;47865;52.086;5.410;2022-10-22T00:07:14;11.98;;;5.15;;
61909;SDS011;47865;52.086;5.410;2022-10-22T00:09:42;11.35;;;5.05;;
61909;SDS011;47865;52.086;5.410;2022-10-22T00:12:09;11.20;;;5.53;;
61909;SDS011;47865;52.086;5.410;2022-10-22T00:14:37;10.32;;;5.13;;
61909;SDS011;47865;52.086;5.410;2022-10-22T00:17:03;13.40;;;5.28;;
61909;SDS011;47865;52.086;5.410;2022-10-22T00:19:36;11.18;;;5.70;;
61909;SDS011;47865;52.086;5.410;2022-10-22T00:22:03;10.30;;;5.13;;
61909;SDS011;47865;52.086;5.410;2022-10-22T00:24:33;11.35;;;5.53;;
61909;SDS011;47865;52.086;5.410;2022-10-22T00:27:00;9.25;;;5.40;;
61909;SDS011;47865;52.086;5.410;2022-10-22T00:29:27;9.90;;;5.22;;
61909;SDS011;47865;52.086;5.410;2022-10-22T00:31:54;9.60;;;4.68;;
61909;SDS011;47865;52.086;5.410;2022-10-22T00:34:22;12.85;;;5.22;;
61909;SDS011;47865;52.086;5.410;2022-10-22T00:36:50;10.23;;;5.53;;
61909;SDS011;47865;52.086;5.410;2022-10-22T00:39:18;12.82;;;5.95;;
61909;SDS011;47865;52.086;5.410;2022-10-22T00:41:46;12.60;;;5.22;;
61909;SDS011;47865;52.086;5.410;2022-10-22T00:47:19;13.52;;;6.10;;
61909;SDS011;47865;52.086;5.410;2022-10-22T00:49:48;13.88;;;5.97;;
61909;SDS011;47865;52.086;5.410;2022-10-22T00:52:16;11.40;;;5.40;;
61909;SDS011;47865;52.086;5.410;2022-10-22T00:54:42;9.27;;;4.97;;
61909;SDS011;47865;52.086;5.410;2022-10-22T00:57:09;10.50;;;4.90;;
61909;SDS011;47865;52.086;5.410;2022-10-22T00:59:36;11.18;;;5.10;;
61909;SDS011;47865;52.086;5.410;2022-10-22T01:02:03;12.20;;;5.13;;
61909;SDS011;47865;52.086;5.410;2022-10-22T01:04:30;15.02;;;5.30;;
61909;SDS011;47865;52.086;5.410;2022-10-22T01:06:57;9.80;;;5.43;;
61909;SDS011;47865;52.086;5.410;2022-10-22T01:09:29;10.13;;;4.97;;
61909;SDS011;47865;52.086;5.410;2022-10-22T01:15:10;13.05;;;4.60;;
61909;SDS011;47865;52.086;5.410;2022-10-22T01:18:00;11.45;;;4.90;;
61909;SDS011;47865;52.086;5.410;2022-10-22T01:20:46;7.47;;;4.80;;
61909;SDS011;47865;52.086;5.410;2022-10-22T01:23:46;8.45;;;4.82;;
61909;SDS011;47865;52.086;5.410;2022-10-22T01:29:17;13.38;;;4.68;;
61909;SDS011;47865;52.086;5.410;2022-10-22T01:31:55;9.45;;;4.68;;
61909;SDS011;47865;52.086;5.410;2022-10-22T01:34:26;9.65;;;4.80;;
61909;SDS011;47865;52.086;5.410;2022-10-22T01:36:54;10.05;;;5.45;;
61909;SDS011;47865;52.086;5.410;2022-10-22T01:39:24;9.70;;;5.05;;
61909;SDS011;47865;52.086;5.410;2022-10-22T01:41:55;13.07;;;4.80;;
61909;SDS011;47865;52.086;5.410;2022-10-22T01:44:27;11.98;;;4.70;;
61909;SDS011;47865;52.086;5.410;2022-10-22T01:52:47;10.63;;;4.65;;
61909;SDS011;47865;52.086;5.410;2022-10-22T01:55:19;10.13;;;4.55;;
61909;SDS011;47865;52.086;5.410;2022-10-22T02:00:58;10.48;;;5.72;;
61909;SDS011;47865;52.086;5.410;2022-10-22T02:03:36;10.55;;;5.18;;
61909;SDS011;47865;52.086;5.410;2022-10-22T02:06:14;13.38;;;5.18;;
61909;SDS011;47865;52.086;5.410;2022-10-22T02:08:45;10.02;;;5.00;;
61909;SDS011;47865;52.086;5.410;2022-10-22T02:11:14;9.60;;;4.85;;
61909;SDS011;47865;52.086;5.410;2022-10-22T02:13:43;9.32;;;4.78;;
61909;SDS011;47865;52.086;5.410;2022-10-22T02:16:19;11.43;;;5.40;;
61909;SDS011;47865;52.086;5.410;2022-10-22T02:18:51;11.13;;;5.05;;
61909;SDS011;47865;52.086;5.410;2022-10-22T02:21:21;12.27;;;5.07;;
61909;SDS011;47865;52.086;5.410;2022-10-22T02:23:48;12.25;;;5.55;;
61909;SDS011;47865;52.086;5.410;2022-10-22T02:29:08;9.95;;;5.20;;
61909;SDS011;47865;52.086;5.410;2022-10-22T02:31:44;9.98;;;4.75;;
61909;SDS011;47865;52.086;5.410;2022-10-22T02:34:14;12.80;;;5.18;;
61909;SDS011;47865;52.086;5.410;2022-10-22T02:36:45;13.43;;;5.10;;
61909;SDS011;47865;52.086;5.410;2022-10-22T02:39:16;8.75;;;4.57;;
61909;SDS011;47865;52.086;5.410;2022-10-22T02:41:44;9.55;;;4.53;;
61909;SDS011;47865;52.086;5.410;2022-10-22T02:44:11;11.30;;;4.90;;
61909;SDS011;47865;52.086;5.410;2022-10-22T02:46:38;10.25;;;4.65;;
61909;SDS011;47865;52.086;5.410;2022-10-22T02:49:07;12.23;;;5.13;;
61909;SDS011;47865;52.086;5.410;2022-10-22T02:51:34;11.35;;;4.47;;
61909;SDS011;47865;52.086;5.410;2022-10-22T02:54:00;9.80;;;4.35;;
61909;SDS011;47865;52.086;5.410;2022-10-22T02:56:27;10.10;;;5.10;;
61909;SDS011;47865;52.086;5.410;2022-10-22T02:58:54;8.48;;;4.97;;
61909;SDS011;47865;52.086;5.410;2022-10-22T03:01:21;15.20;;;4.65;;
61909;SDS011;47865;52.086;5.410;2022-10-22T03:03:48;10.02;;;5.00;;
61909;SDS011;47865;52.086;5.410;2022-10-22T03:06:15;16.75;;;4.78;;
61909;SDS011;47865;52.086;5.410;2022-10-22T03:08:42;14.60;;;4.57;;
61909;SDS011;47865;52.086;5.410;2022-10-22T03:11:09;10.00;;;4.95;;
61909;SDS011;47865;52.086;5.410;2022-10-22T03:13:35;9.70;;;5.10;;
61909;SDS011;47865;52.086;5.410;2022-10-22T03:16:02;9.18;;;5.25;;
61909;SDS011;47865;52.086;5.410;2022-10-22T03:18:29;10.73;;;4.63;;
61909;SDS011;47865;52.086;5.410;2022-10-22T03:21:00;15.00;;;5.15;;
61909;SDS011;47865;52.086;5.410;2022-10-22T03:23:49;11.40;;;4.40;;
61909;SDS011;47865;52.086;5.410;2022-10-22T03:26:17;7.82;;;4.75;;
61909;SDS011;47865;52.086;5.410;2022-10-22T03:28:44;9.10;;;4.72;;
61909;SDS011;47865;52.086;5.410;2022-10-22T03:31:13;14.45;;;4.82;;
61909;SDS011;47865;52.086;5.410;2022-10-22T03:33:39;13.88;;;5.00;;
61909;SDS011;47865;52.086;5.410;2022-10-22T03:36:06;10.55;;;4.63;;
61909;SDS011;47865;52.086;5.410;2022-10-22T03:38:35;10.85;;;4.43;;
61909;SDS011;47865;52.086;5.410;2022-10-22T03:41:04;8.48;;;4.47;;
61909;SDS011;47865;52.086;5.410;2022-10-22T03:43:32;12.75;;;4.90;;
61909;SDS011;47865;52.086;5.410;2022-10-22T03:46:00;9.63;;;5.05;;
61909;SDS011;47865;52.086;5.410;2022-10-22T03:48:26;10.73;;;4.43;;
61909;SDS011;47865;52.086;5.410;2022-10-22T03:50:53;8.82;;;4.53;;
61909;SDS011;47865;52.086;5.410;2022-10-22T03:53:20;10.20;;;4.60;;
61909;SDS011;47865;52.086;5.410;2022-10-22T03:55:47;11.18;;;4.68;;
61909;SDS011;47865;52.086;5.410;2022-10-22T03:58:13;12.05;;;5.00;;
61909;SDS011;47865;52.086;5.410;2022-10-22T04:00:40;9.00;;;4.75;;
61909;SDS011;47865;52.086;5.410;2022-10-22T04:03:07;13.48;;;4.53;;
61909;SDS011;47865;52.086;5.410;2022-10-22T04:05:34;8.43;;;4.75;;
61909;SDS011;47865;52.086;5.410;2022-10-22T04:08:00;15.45;;;4.80;;
61909;SDS011;47865;52.086;5.410;2022-10-22T04:10:27;9.43;;;4.72;;
61909;SDS011;47865;52.086;5.410;2022-10-22T04:12:54;9.30;;;4.65;;
61909;SDS011;47865;52.086;5.410;2022-10-22T04:15:20;10.30;;;4.95;;
61909;SDS011;47865;52.086;5.410;2022-10-22T04:17:47;13.50;;;5.40;;
61909;SDS011;47865;52.086;5.410;2022-10-22T04:20:14;9.73;;;4.78;;
61909;SDS011;47865;52.086;5.410;2022-10-22T04:22:41;13.60;;;4.68;;
61909;SDS011;47865;52.086;5.410;2022-10-22T04:25:07;8.05;;;4.47;;
61909;SDS011;47865;52.086;5.410;2022-10-22T04:27:34;10.23;;;4.18;;
61909;SDS011;47865;52.086;5.410;2022-10-22T04:30:02;11.18;;;5.55;;
61909;SDS011;47865;52.086;5.410;2022-10-22T04:32:30;12.30;;;5.05;;
61909;SDS011;47865;52.086;5.410;2022-10-22T04:34:57;13.25;;;5.20;;
61909;SDS011;47865;52.086;5.410;2022-10-22T04:37:23;13.02;;;4.78;;
61909;SDS011;47865;52.086;5.410;2022-10-22T04:39:50;14.43;;;5.47;;
61909;SDS011;47865;52.086;5.410;2022-10-22T04:42:17;8.77;;;4.53;;
61909;SDS011;47865;52.086;5.410;2022-10-22T04:44:43;13.48;;;4.55;;
61909;SDS011;47865;52.086;5.410;2022-10-22T04:47:10;12.57;;;5.15;;
61909;SDS011;47865;52.086;5.410;2022-10-22T04:49:37;13.35;;;5.03;;
61909;SDS011;47865;52.086;5.410;2022-10-22T04:52:04;12.00;;;4.82;;
61909;SDS011;47865;52.086;5.410;2022-10-22T04:54:30;12.93;;;5.22;;
61909;SDS011;47865;52.086;5.410;2022-10-22T04:56:58;12.15;;;5.18;;
61909;SDS011;47865;52.086;5.410;2022-10-22T04:59:25;14.82;;;5.15;;
61909;SDS011;47865;52.086;5.410;2022-10-22T05:01:52;14.48;;;5.80;;
61909;SDS011;47865;52.086;5.410;2022-10-22T05:04:18;15.07;;;6.20;;
61909;SDS011;47865;52.086;5.410;2022-10-22T05:06:45;14.00;;;5.40;;
61909;SDS011;47865;52.086;5.410;2022-10-22T05:09:16;15.77;;;5.10;;
61909;SDS011;47865;52.086;5.410;2022-10-22T05:11:46;14.40;;;5.60;;
61909;SDS011;47865;52.086;5.410;2022-10-22T05:14:15;12.68;;;5.00;;
61909;SDS011;47865;52.086;5.410;2022-10-22T05:16:43;8.35;;;4.60;;
61909;SDS011;47865;52.086;5.410;2022-10-22T05:19:20;17.15;;;4.63;;
61909;SDS011;47865;52.086;5.410;2022-10-22T05:21:51;13.25;;;4.13;;
61909;SDS011;47865;52.086;5.410;2022-10-22T05:24:19;7.97;;;3.95;;
61909;SDS011;47865;52.086;5.410;2022-10-22T05:26:50;10.38;;;4.43;;
61909;SDS011;47865;52.086;5.410;2022-10-22T05:29:18;9.90;;;3.95;;
61909;SDS011;47865;52.086;5.410;2022-10-22T05:31:45;11.23;;;4.10;;
61909;SDS011;47865;52.086;5.410;2022-10-22T05:34:12;12.30;;;4.25;;
61909;SDS011;47865;52.086;5.410;2022-10-22T05:36:39;11.15;;;4.50;;
61909;SDS011;47865;52.086;5.410;2022-10-22T05:39:06;9.18;;;3.85;;
61909;SDS011;47865;52.086;5.410;2022-10-22T05:41:33;8.90;;;3.85;;
61909;SDS011;47865;52.086;5.410;2022-10-22T05:44:01;20.92;;;4.60;;
61909;SDS011;47865;52.086;5.410;2022-10-22T05:46:29;10.48;;;3.92;;
61909;SDS011;47865;52.086;5.410;2022-10-22T05:48:59;14.50;;;5.78;;
61909;SDS011;47865;52.086;5.410;2022-10-22T05:51:29;18.15;;;6.00;;
61909;SDS011;47865;52.086;5.410;2022-10-22T05:53:59;14.45;;;4.32;;
61909;SDS011;47865;52.086;5.410;2022-10-22T05:56:28;11.07;;;4.15;;
61909;SDS011;47865;52.086;5.410;2022-10-22T05:58:57;13.75;;;4.10;;
61909;SDS011;47865;52.086;5.410;2022-10-22T06:01:28;9.15;;;4.10;;
61909;SDS011;47865;52.086;5.410;2022-10-22T06:03:57;11.15;;;4.38;;
61909;SDS011;47865;52.086;5.410;2022-10-22T06:06:30;14.77;;;4.35;;
61909;SDS011;47865;52.086;5.410;2022-10-22T06:09:03;25.13;;;9.10;;
61909;SDS011;47865;52.086;5.410;2022-10-22T06:11:42;20.00;;;6.35;;
61909;SDS011;47865;52.086;5.410;2022-10-22T06:14:10;16.70;;;4.70;;
61909;SDS011;47865;52.086;5.410;2022-10-22T06:16:37;12.75;;;3.55;;
61909;SDS011;47865;52.086;5.410;2022-10-22T06:19:04;19.05;;;4.97;;
61909;SDS011;47865;52.086;5.410;2022-10-22T06:21:31;13.93;;;4.85;;
61909;SDS011;47865;52.086;5.410;2022-10-22T06:23:58;11.50;;;4.05;;
61909;SDS011;47865;52.086;5.410;2022-10-22T06:26:26;11.75;;;4.88;;
61909;SDS011;47865;52.086;5.410;2022-10-22T06:28:53;15.77;;;4.72;;
61909;SDS011;47865;52.086;5.410;2022-10-22T06:31:21;14.05;;;4.35;;
61909;SDS011;47865;52.086;5.410;2022-10-22T06:33:49;10.57;;;4.82;;
61909;SDS011;47865;52.086;5.410;2022-10-22T06:36:17;16.30;;;4.75;;
61909;SDS011;47865;52.086;5.410;2022-10-22T06:38:46;11.05;;;4.10;;
61909;SDS011;47865;52.086;5.410;2022-10-22T06:41:14;8.95;;;4.03;;
61909;SDS011;47865;52.086;5.410;2022-10-22T06:43:42;6.85;;;3.75;;
61909;SDS011;47865;52.086;5.410;2022-10-22T06:46:13;8.88;;;4.05;;
61909;SDS011;47865;52.086;5.410;2022-10-22T06:48:49;15.20;;;3.70;;
61909;SDS011;47865;52.086;5.410;2022-10-22T06:51:17;6.28;;;3.15;;
61909;SDS011;47865;52.086;5.410;2022-10-22T06:53:44;8.80;;;3.55;;
61909;SDS011;47865;52.086;5.410;2022-10-22T06:56:13;8.20;;;3.47;;
61909;SDS011;47865;52.086;5.410;2022-10-22T06:58:42;9.00;;;2.92;;
61909;SDS011;47865;52.086;5.410;2022-10-22T07:01:16;12.55;;;3.65;;
61909;SDS011;47865;52.086;5.410;2022-10-22T07:03:44;12.02;;;3.58;;
61909;SDS011;47865;52.086;5.410;2022-10-22T07:06:12;10.43;;;3.30;;
61909;SDS011;47865;52.086;5.410;2022-10-22T07:08:39;11.45;;;3.60;;
61909;SDS011;47865;52.086;5.410;2022-10-22T07:11:11;8.82;;;3.75;;
61909;SDS011;47865;52.086;5.410;2022-10-22T07:13:40;9.38;;;3.10;;
61909;SDS011;47865;52.086;5.410;2022-10-22T07:16:07;12.02;;;3.40;;
61909;SDS011;47865;52.086;5.410;2022-10-22T07:18:35;12.27;;;3.50;;
61909;SDS011;47865;52.086;5.410;2022-10-22T07:21:03;15.75;;;3.75;;
61909;SDS011;47865;52.086;5.410;2022-10-22T07:23:31;10.38;;;2.83;;
61909;SDS011;47865;52.086;5.410;2022-10-22T07:25:58;9.93;;;3.72;;
61909;SDS011;47865;52.086;5.410;2022-10-22T07:28:27;14.88;;;3.75;;
61909;SDS011;47865;52.086;5.410;2022-10-22T07:30:55;13.48;;;3.60;;
61909;SDS011;47865;52.086;5.410;2022-10-22T07:33:22;15.10;;;3.33;;
61909;SDS011;47865;52.086;5.410;2022-10-22T07:35:48;11.57;;;3.08;;
61909;SDS011;47865;52.086;5.410;2022-10-22T07:38:15;11.48;;;3.50;;
61909;SDS011;47865;52.086;5.410;2022-10-22T07:40:42;15.15;;;3.55;;
61909;SDS011;47865;52.086;5.410;2022-10-22T07:43:09;9.02;;;3.13;;
61909;SDS011;47865;52.086;5.410;2022-10-22T07:45:35;11.02;;;3.25;;
61909;SDS011;47865;52.086;5.410;2022-10-22T07:48:02;12.73;;;3.42;;
61909;SDS011;47865;52.086;5.410;2022-10-22T07:50:29;11.05;;;2.88;;
61909;SDS011;47865;52.086;5.410;2022-10-22T07:52:56;10.07;;;3.20;;
61909;SDS011;47865;52.086;5.410;2022-10-22T07:55:23;11.50;;;3.08;;
61909;SDS011;47865;52.086;5.410;2022-10-22T07:57:50;13.07;;;4.05;;
61909;SDS011;47865;52.086;5.410;2022-10-22T08:00:17;8.90;;;3.17;;
61909;SDS011;47865;52.086;5.410;2022-10-22T08:02:49;8.63;;;3.00;;
61909;SDS011;47865;52.086;5.410;2022-10-22T08:05:16;9.60;;;3.35;;
61909;SDS011;47865;52.086;5.410;2022-10-22T08:07:43;10.00;;;2.63;;
61909;SDS011;47865;52.086;5.410;2022-10-22T08:10:10;4.88;;;2.88;;
61909;SDS011;47865;52.086;5.410;2022-10-22T08:12:37;11.13;;;2.78;;
61909;SDS011;47865;52.086;5.410;2022-10-22T08:15:05;9.15;;;3.25;;
61909;SDS011;47865;52.086;5.410;2022-10-22T08:17:32;15.32;;;3.05;;
61909;SDS011;47865;52.086;5.410;2022-10-22T08:19:59;7.38;;;3.00;;
61909;SDS011;47865;52.086;5.410;2022-10-22T08:22:26;11.77;;;2.92;;
61909;SDS011;47865;52.086;5.410;2022-10-22T08:24:53;7.65;;;2.70;;
61909;SDS011;47865;52.086;5.410;2022-10-22T08:27:20;12.95;;;3.60;;
61909;SDS011;47865;52.086;5.410;2022-10-22T08:29:47;12.43;;;3.05;;
61909;SDS011;47865;52.086;5.410;2022-10-22T08:32:13;8.77;;;3.05;;
61909;SDS011;47865;52.086;5.410;2022-10-22T08:34:40;7.35;;;2.42;;
61909;SDS011;47865;52.086;5.410;2022-10-22T08:37:07;8.07;;;2.70;;
61909;SDS011;47865;52.086;5.410;2022-10-22T08:39:35;7.63;;;2.25;;
61909;SDS011;47865;52.086;5.410;2022-10-22T08:44:55;10.50;;;2.67;;
61909;SDS011;47865;52.086;5.410;2022-10-22T08:47:35;10.25;;;2.70;;
61909;SDS011;47865;52.086;5.410;2022-10-22T08:50:10;10.65;;;2.83;;
61909;SDS011;47865;52.086;5.410;2022-10-22T08:52:41;11.37;;;2.73;;
61909;SDS011;47865;52.086;5.410;2022-10-22T08:55:13;11.57;;;2.75;;
61909;SDS011;47865;52.086;5.410;2022-10-22T09:00:29;12.07;;;2.88;;
61909;SDS011;47865;52.086;5.410;2022-10-22T09:08:36;13.02;;;3.10;;
61909;SDS011;47865;52.086;5.410;2022-10-22T09:13:41;10.60;;;2.75;;
61909;SDS011;47865;52.086;5.410;2022-10-22T09:24:05;8.10;;;2.60;;
61909;SDS011;47865;52.086;5.410;2022-10-22T09:26:58;8.48;;;2.55;;
61909;SDS011;47865;52.086;5.410;2022-10-22T09:29:30;14.88;;;3.05;;
61909;SDS011;47865;52.086;5.410;2022-10-22T09:31:58;9.85;;;2.45;;
61909;SDS011;47865;52.086;5.410;2022-10-22T09:34:25;9.63;;;2.60;;
61909;SDS011;47865;52.086;5.410;2022-10-22T09:36:58;10.90;;;2.65;;
61909;SDS011;47865;52.086;5.410;2022-10-22T09:39:27;11.73;;;4.32;;
61909;SDS011;47865;52.086;5.410;2022-10-22T09:42:04;10.70;;;2.55;;
61909;SDS011;47865;52.086;5.410;2022-10-22T09:44:34;12.55;;;2.58;;
61909;SDS011;47865;52.086;5.410;2022-10-22T09:47:06;14.18;;;3.83;;
61909;SDS011;47865;52.086;5.410;2022-10-22T09:52:53;11.77;;;3.92;;
61909;SDS011;47865;52.086;5.410;2022-10-22T09:55:25;15.43;;;3.95;;
61909;SDS011;47865;52.086;5.410;2022-10-22T09:57:53;12.77;;;4.00;;
61909;SDS011;47865;52.086;5.410;2022-10-22T10:00:21;11.20;;;3.08;;
61909;SDS011;47865;52.086;5.410;2022-10-22T10:02:54;10.75;;;3.50;;
61909;SDS011;47865;52.086;5.410;2022-10-22T10:05:27;9.60;;;2.60;;
61909;SDS011;47865;52.086;5.410;2022-10-22T10:07:57;11.45;;;3.75;;
61909;SDS011;47865;52.086;5.410;2022-10-22T10:10:36;8.98;;;3.25;;
61909;SDS011;47865;52.086;5.410;2022-10-22T10:27:25;15.52;;;2.85;;
61909;SDS011;47865;52.086;5.410;2022-10-22T10:30:14;9.65;;;2.58;;
61909;SDS011;47865;52.086;5.410;2022-10-22T10:32:54;8.82;;;2.15;;
61909;SDS011;47865;52.086;5.410;2022-10-22T10:44:09;10.43;;;2.28;;
61909;SDS011;47865;52.086;5.410;2022-10-22T10:46:46;6.85;;;2.13;;
61909;SDS011;47865;52.086;5.410;2022-10-22T10:49:34;9.63;;;1.88;;
61909;SDS011;47865;52.086;5.410;2022-10-22T10:57:02;7.70;;;1.63;;
61909;SDS011;47865;52.086;5.410;2022-10-22T10:59:51;7.03;;;1.60;;
61909;SDS011;47865;52.086;5.410;2022-10-22T11:02:33;12.30;;;2.17;;
61909;SDS011;47865;52.086;5.410;2022-10-22T11:10:45;9.82;;;2.22;;
61909;SDS011;47865;52.086;5.410;2022-10-22T11:13:29;12.38;;;1.83;;
61909;SDS011;47865;52.086;5.410;2022-10-22T11:16:05;12.68;;;2.28;;
61909;SDS011;47865;52.086;5.410;2022-10-22T11:21:58;5.13;;;1.42;;
61909;SDS011;47865;52.086;5.410;2022-10-22T11:24:36;12.53;;;1.87;;
61909;SDS011;47865;52.086;5.410;2022-10-22T11:30:16;6.55;;;1.50;;
61909;SDS011;47865;52.086;5.410;2022-10-22T11:32:45;7.28;;;1.83;;
61909;SDS011;47865;52.086;5.410;2022-10-22T11:35:25;9.85;;;2.08;;
61909;SDS011;47865;52.086;5.410;2022-10-22T11:37:55;9.68;;;1.60;;
61909;SDS011;47865;52.086;5.410;2022-10-22T11:40:36;8.65;;;1.70;;
61909;SDS011;47865;52.086;5.410;2022-10-22T11:45:39;8.57;;;1.40;;
61909;SDS011;47865;52.086;5.410;2022-10-22T11:53:37;14.90;;;1.77;;
61909;SDS011;47865;52.086;5.410;2022-10-22T11:58:41;11.88;;;2.00;;
61909;SDS011;47865;52.086;5.410;2022-10-22T12:03:37;10.30;;;2.08;;
61909;SDS011;47865;52.086;5.410;2022-10-22T12:08:45;17.15;;;2.47;;
61909;SDS011;47865;52.086;5.410;2022-10-22T12:16:43;5.75;;;1.52;;
61909;SDS011;47865;52.086;5.410;2022-10-22T12:19:40;13.13;;;1.75;;
61909;SDS011;47865;52.086;5.410;2022-10-22T12:24:45;11.52;;;1.75;;
61909;SDS011;47865;52.086;5.410;2022-10-22T12:27:18;10.52;;;2.38;;
61909;SDS011;47865;52.086;5.410;2022-10-22T12:29:52;10.57;;;1.77;;
61909;SDS011;47865;52.086;5.410;2022-10-22T12:32:20;10.25;;;2.03;;
61909;SDS011;47865;52.086;5.410;2022-10-22T12:34:48;7.50;;;1.88;;
61909;SDS011;47865;52.086;5.410;2022-10-22T12:37:17;12.65;;;1.95;;
61909;SDS011;47865;52.086;5.410;2022-10-22T12:39:45;9.25;;;2.05;;
61909;SDS011;47865;52.086;5.410;2022-10-22T12:42:13;12.00;;;2.38;;
61909;SDS011;47865;52.086;5.410;2022-10-22T12:44:42;8.82;;;2.20;;
61909;SDS011;47865;52.086;5.410;2022-10-22T12:47:12;14.32;;;2.33;;
61909;SDS011;47865;52.086;5.410;2022-10-22T12:49:42;11.07;;;2.60;;
61909;SDS011;47865;52.086;5.410;2022-10-22T12:52:14;10.45;;;2.83;;
61909;SDS011;47865;52.086;5.410;2022-10-22T12:54:45;16.13;;;2.73;;
61909;SDS011;47865;52.086;5.410;2022-10-22T12:57:15;9.63;;;2.40;;
61909;SDS011;47865;52.086;5.410;2022-10-22T12:59:45;11.77;;;2.33;;
61909;SDS011;47865;52.086;5.410;2022-10-22T13:02:16;8.60;;;1.73;;
61909;SDS011;47865;52.086;5.410;2022-10-22T13:07:41;14.50;;;2.28;;
61909;SDS011;47865;52.086;5.410;2022-10-22T13:12:44;9.40;;;2.30;;
61909;SDS011;47865;52.086;5.410;2022-10-22T13:18:21;10.90;;;3.00;;
61909;SDS011;47865;52.086;5.410;2022-10-22T13:20:49;10.70;;;3.00;;
61909;SDS011;47865;52.086;5.410;2022-10-22T13:23:19;9.05;;;2.83;;
61909;SDS011;47865;52.086;5.410;2022-10-22T13:25:57;14.45;;;3.17;;
61909;SDS011;47865;52.086;5.410;2022-10-22T13:28:50;10.38;;;2.55;;
61909;SDS011;47865;52.086;5.410;2022-10-22T13:31:25;12.70;;;2.53;;
61909;SDS011;47865;52.086;5.410;2022-10-22T13:34:02;10.23;;;2.15;;
61909;SDS011;47865;52.086;5.410;2022-10-22T13:36:37;7.85;;;2.42;;
61909;SDS011;47865;52.086;5.410;2022-10-22T13:39:05;9.93;;;2.70;;
61909;SDS011;47865;52.086;5.410;2022-10-22T13:41:39;12.15;;;2.42;;
61909;SDS011;47865;52.086;5.410;2022-10-22T13:44:10;10.85;;;3.10;;
61909;SDS011;47865;52.086;5.410;2022-10-22T13:46:37;10.65;;;2.40;;
61909;SDS011;47865;52.086;5.410;2022-10-22T13:49:15;15.85;;;3.20;;
61909;SDS011;47865;52.086;5.410;2022-10-22T13:51:43;16.45;;;3.00;;
61909;SDS011;47865;52.086;5.410;2022-10-22T13:54:15;10.93;;;3.00;;
61909;SDS011;47865;52.086;5.410;2022-10-22T13:56:44;12.13;;;3.42;;
61909;SDS011;47865;52.086;5.410;2022-10-22T13:59:11;15.07;;;3.45;;
61909;SDS011;47865;52.086;5.410;2022-10-22T14:01:38;9.73;;;2.72;;
61909;SDS011;47865;52.086;5.410;2022-10-22T14:04:05;18.42;;;3.67;;
61909;SDS011;47865;52.086;5.410;2022-10-22T14:06:35;11.60;;;2.70;;
61909;SDS011;47865;52.086;5.410;2022-10-22T14:09:04;14.57;;;3.33;;
61909;SDS011;47865;52.086;5.410;2022-10-22T14:11:34;11.87;;;3.00;;
61909;SDS011;47865;52.086;5.410;2022-10-22T14:14:01;10.80;;;2.55;;
61909;SDS011;47865;52.086;5.410;2022-10-22T14:16:30;13.30;;;3.05;;
61909;SDS011;47865;52.086;5.410;2022-10-22T14:18:58;12.27;;;3.17;;
61909;SDS011;47865;52.086;5.410;2022-10-22T14:21:26;13.25;;;3.30;;
61909;SDS011;47865;52.086;5.410;2022-10-22T14:23:58;7.97;;;2.53;;
61909;SDS011;47865;52.086;5.410;2022-10-22T14:26:26;13.60;;;2.75;;
61909;SDS011;47865;52.086;5.410;2022-10-22T14:28:56;12.05;;;2.88;;
61909;SDS011;47865;52.086;5.410;2022-10-22T14:31:39;11.02;;;2.67;;
61909;SDS011;47865;52.086;5.410;2022-10-22T14:34:09;19.13;;;3.45;;
61909;SDS011;47865;52.086;5.410;2022-10-22T14:36:37;13.52;;;3.53;;
61909;SDS011;47865;52.086;5.410;2022-10-22T14:39:04;13.27;;;2.92;;
61909;SDS011;47865;52.086;5.410;2022-10-22T14:41:31;16.10;;;3.45;;
61909;SDS011;47865;52.086;5.410;2022-10-22T14:43:58;12.38;;;3.40;;
61909;SDS011;47865;52.086;5.410;2022-10-22T14:46:25;14.85;;;3.55;;
61909;SDS011;47865;52.086;5.410;2022-10-22T14:48:51;11.70;;;3.65;;
61909;SDS011;47865;52.086;5.410;2022-10-22T14:51:19;18.40;;;4.13;;
61909;SDS011;47865;52.086;5.410;2022-10-22T14:53:47;10.15;;;2.83;;
61909;SDS011;47865;52.086;5.410;2022-10-22T14:56:15;11.90;;;3.03;;
61909;SDS011;47865;52.086;5.410;2022-10-22T14:58:44;14.95;;;2.67;;
61909;SDS011;47865;52.086;5.410;2022-10-22T15:01:11;11.02;;;2.65;;
61909;SDS011;47865;52.086;5.410;2022-10-22T15:03:38;19.30;;;3.10;;
61909;SDS011;47865;52.086;5.410;2022-10-22T15:06:05;8.50;;;2.70;;
61909;SDS011;47865;52.086;5.410;2022-10-22T15:08:31;16.30;;;2.67;;
61909;SDS011;47865;52.086;5.410;2022-10-22T15:10:59;11.82;;;2.35;;
61909;SDS011;47865;52.086;5.410;2022-10-22T15:13:31;9.60;;;2.83;;
61909;SDS011;47865;52.086;5.410;2022-10-22T15:15:58;11.60;;;2.45;;
61909;SDS011;47865;52.086;5.410;2022-10-22T15:18:25;9.05;;;2.58;;
61909;SDS011;47865;52.086;5.410;2022-10-22T15:20:53;10.30;;;2.30;;
61909;SDS011;47865;52.086;5.410;2022-10-22T15:23:24;14.40;;;2.73;;
61909;SDS011;47865;52.086;5.410;2022-10-22T15:25:51;10.85;;;2.22;;
61909;SDS011;47865;52.086;5.410;2022-10-22T15:28:18;11.52;;;2.13;;
61909;SDS011;47865;52.086;5.410;2022-10-22T15:30:50;9.40;;;2.22;;
61909;SDS011;47865;52.086;5.410;2022-10-22T15:33:18;11.30;;;2.08;;
61909;SDS011;47865;52.086;5.410;2022-10-22T15:35:45;11.52;;;2.40;;
61909;SDS011;47865;52.086;5.410;2022-10-22T15:38:11;11.02;;;2.08;;
61909;SDS011;47865;52.086;5.410;2022-10-22T15:40:38;8.63;;;1.92;;
61909;SDS011;47865;52.086;5.410;2022-10-22T15:43:05;18.40;;;2.55;;
61909;SDS011;47865;52.086;5.410;2022-10-22T15:45:31;12.15;;;2.38;;
61909;SDS011;47865;52.086;5.410;2022-10-22T15:47:58;11.73;;;2.17;;
61909;SDS011;47865;52.086;5.410;2022-10-22T15:50:25;10.65;;;2.30;;
61909;SDS011;47865;52.086;5.410;2022-10-22T15:52:52;11.73;;;2.20;;
61909;SDS011;47865;52.086;5.410;2022-10-22T15:55:19;12.18;;;2.80;;
61909;SDS011;47865;52.086;5.410;2022-10-22T15:57:46;14.80;;;2.80;;
61909;SDS011;47865;52.086;5.410;2022-10-22T16:00:20;8.38;;;2.42;;
61909;SDS011;47865;52.086;5.410;2022-10-22T16:02:47;13.40;;;2.67;;
61909;SDS011;47865;52.086;5.410;2022-10-22T16:05:14;13.35;;;2.60;;
61909;SDS011;47865;52.086;5.410;2022-10-22T16:07:41;9.18;;;2.50;;
61909;SDS011;47865;52.086;5.410;2022-10-22T16:10:08;13.35;;;3.00;;
61909;SDS011;47865;52.086;5.410;2022-10-22T16:12:37;11.88;;;2.90;;
61909;SDS011;47865;52.086;5.410;2022-10-22T16:15:07;13.40;;;3.20;;
61909;SDS011;47865;52.086;5.410;2022-10-22T16:17:34;10.88;;;2.75;;
61909;SDS011;47865;52.086;5.410;2022-10-22T16:20:01;12.60;;;3.05;;
61909;SDS011;47865;52.086;5.410;2022-10-22T16:22:28;11.25;;;2.97;;
61909;SDS011;47865;52.086;5.410;2022-10-22T16:24:54;10.20;;;3.10;;
61909;SDS011;47865;52.086;5.410;2022-10-22T16:27:21;10.65;;;3.17;;
61909;SDS011;47865;52.086;5.410;2022-10-22T16:29:48;9.23;;;2.63;;
61909;SDS011;47865;52.086;5.410;2022-10-22T16:32:14;7.18;;;2.47;;
61909;SDS011;47865;52.086;5.410;2022-10-22T16:34:41;12.70;;;2.80;;
61909;SDS011;47865;52.086;5.410;2022-10-22T16:37:08;9.20;;;2.75;;
61909;SDS011;47865;52.086;5.410;2022-10-22T16:39:35;6.65;;;2.85;;
61909;SDS011;47865;52.086;5.410;2022-10-22T16:42:02;7.50;;;2.53;;
61909;SDS011;47865;52.086;5.410;2022-10-22T16:44:29;12.40;;;3.10;;
61909;SDS011;47865;52.086;5.410;2022-10-22T16:46:56;13.32;;;3.38;;
61909;SDS011;47865;52.086;5.410;2022-10-22T16:49:22;22.02;;;7.57;;
61909;SDS011;47865;52.086;5.410;2022-10-22T16:51:49;11.48;;;3.60;;